Time;durP1;ratioP1;P1;durP2;ratioP2;P2;SDS_P1;SDS_P2;PMS_P1;PMS_P2;Temp;Humidity;BMP_temperature;BMP_pressure;BME280_temperature;BME280_humidity;BME280_pressure;Samples;Min_cycle;Max_cycle;Signal;HPM_P1;HPM_P2
2022/01/31 15:16:14;;;;;;;12.32;7.47;;;0.50;99.90;;;;;;5092482;27;20386;-89
2022/01/31 15:18:43;;;;;;;18.92;8.98;;;0.60;99.90;;;;;;5090705;28;20107;-90
2022/01/31 15:21:11;;;;;;;123.57;32.83;;;0.60;99.90;;;;;;5091557;28;20115;-89
2022/01/31 15:23:40;;;;;;;15.30;6.05;;;0.60;99.90;;;;;;5090879;28;20021;-92
2022/01/31 15:26:11;;;;;;;7.35;3.38;;;0.60;99.90;;;;;;5091042;28;20021;-93
2022/01/31 15:28:39;;;;;;;14.85;6.57;;;0.70;99.90;;;;;;5090768;28;20475;-92
2022/01/31 15:31:06;;;;;;;8.63;3.83;;;0.70;99.90;;;;;;5090780;28;20021;-93
2022/01/31 15:33:33;;;;;;;6.38;3.90;;;0.70;99.90;;;;;;5090870;28;20020;-92
2022/01/31 15:35:59;;;;;;;8.32;3.72;;;0.70;99.90;;;;;;5091425;28;20028;-90
2022/01/31 15:38:28;;;;;;;10.95;6.22;;;0.70;99.90;;;;;;5090417;28;20470;-94
2022/01/31 15:40:55;;;;;;;14.85;7.40;;;0.70;99.90;;;;;;5090696;28;20123;-93
2022/01/31 15:43:24;;;;;;;16.40;7.85;;;0.70;99.90;;;;;;5090419;28;20535;-94
2022/01/31 15:45:50;;;;;;;13.13;6.38;;;0.70;99.90;;;;;;5090789;28;20024;-94
2022/01/31 15:48:16;;;;;;;18.13;8.98;;;0.80;99.90;;;;;;5090516;28;20024;-92
2022/01/31 15:50:43;;;;;;;13.45;7.35;;;0.70;99.90;;;;;;5090285;28;20044;-93
2022/01/31 15:53:09;;;;;;;10.63;5.18;;;0.80;99.90;;;;;;5090112;28;20024;-93
2022/01/31 15:55:39;;;;;;;7.25;4.15;;;0.80;99.90;;;;;;5090444;28;20115;-91
2022/01/31 15:58:13;;;;;;;11.23;5.40;;;0.80;99.90;;;;;;5090101;28;20394;-94
2022/01/31 16:00:41;;;;;;;19.70;9.27;;;0.80;99.90;;;;;;5089992;28;20119;-96
2022/01/31 16:03:11;;;;;;;11.30;5.72;;;0.80;99.90;;;;;;5090453;28;20100;-93
2022/01/31 16:05:37;;;;;;;10.93;5.13;;;0.80;99.90;;;;;;5090290;28;20024;-93
2022/01/31 16:08:07;;;;;;;8.20;4.22;;;0.80;99.90;;;;;;5090326;28;20257;-94
2022/01/31 16:10:33;;;;;;;11.82;5.22;;;0.80;99.90;;;;;;5090232;28;20028;-94
2022/01/31 16:13:04;;;;;;;9.40;5.50;;;0.80;99.90;;;;;;5090435;28;20119;-93
2022/01/31 16:15:33;;;;;;;8.57;4.30;;;0.80;99.90;;;;;;5089875;28;20051;-93
2022/01/31 16:18:00;;;;;;;12.57;6.40;;;0.80;99.90;;;;;;5089841;28;20038;-93
2022/01/31 16:20:34;;;;;;;10.60;5.72;;;0.80;99.90;;;;;;5090027;28;20020;-95
2022/01/31 16:23:00;;;;;;;15.70;6.68;;;0.80;99.90;;;;;;5091801;28;20099;-93
2022/01/31 16:25:27;;;;;;;23.67;9.77;;;0.80;99.90;;;;;;5089864;28;20454;-93
2022/01/31 16:27:58;;;;;;;17.02;7.43;;;0.80;99.90;;;;;;5077662;28;20039;-94
2022/01/31 16:30:29;;;;;;;12.50;5.88;;;0.80;99.90;;;;;;5077339;28;20028;-94
2022/01/31 16:32:55;;;;;;;10.75;6.43;;;0.80;99.90;;;;;;5077001;28;20038;-93
2022/01/31 16:35:24;;;;;;;8.45;5.00;;;0.80;99.90;;;;;;5076251;28;20032;-95
2022/01/31 16:37:51;;;;;;;10.20;5.45;;;0.90;99.90;;;;;;5077425;28;20024;-93
2022/01/31 16:40:20;;;;;;;9.40;4.53;;;0.80;99.90;;;;;;5075927;28;20047;-95
2022/01/31 16:42:46;;;;;;;7.97;4.38;;;0.80;99.90;;;;;;5075696;28;20079;-91
2022/01/31 16:45:15;;;;;;;7.20;3.50;;;0.90;99.90;;;;;;5078755;28;20020;-93
2022/01/31 16:47:43;;;;;;;7.22;4.55;;;0.80;99.90;;;;;;5075750;28;20111;-93
2022/01/31 16:50:10;;;;;;;10.60;4.10;;;0.80;99.90;;;;;;5075465;28;20039;-93
2022/01/31 16:52:37;;;;;;;10.60;5.32;;;0.90;99.90;;;;;;5077018;28;20395;-93
2022/01/31 16:55:08;;;;;;;21.35;9.25;;;0.80;99.90;;;;;;5076125;28;20033;-94
2022/01/31 16:57:34;;;;;;;21.77;10.00;;;0.80;99.90;;;;;;5076116;28;20020;-94
2022/01/31 16:59:59;;;;;;;23.30;10.05;;;0.80;99.90;;;;;;5075904;28;20081;-93
2022/01/31 17:02:25;;;;;;;12.07;5.18;;;0.80;99.90;;;;;;5075368;28;20021;-95
2022/01/31 17:04:54;;;;;;;14.13;6.22;;;0.70;99.90;;;;;;5075920;28;20091;-95
2022/01/31 17:07:29;;;;;;;12.07;6.22;;;0.80;99.90;;;;;;5077347;28;20059;-95
2022/01/31 17:09:55;;;;;;;11.48;5.95;;;0.80;99.90;;;;;;5075469;28;20029;-92
2022/01/31 17:12:22;;;;;;;10.68;5.50;;;0.80;99.90;;;;;;5075845;28;20574;-91
2022/01/31 17:14:48;;;;;;;9.18;4.40;;;0.80;99.90;;;;;;5075494;28;20052;-91
2022/01/31 17:17:14;;;;;;;8.30;4.90;;;0.80;99.90;;;;;;5075263;28;20032;-91
2022/01/31 17:19:39;;;;;;;8.57;4.22;;;0.80;99.90;;;;;;5075947;28;20016;-92
2022/01/31 17:22:05;;;;;;;9.93;4.93;;;0.80;99.90;;;;;;5075327;28;20021;-92
2022/01/31 17:25:02;;;;;;;11.05;5.40;;;0.80;99.90;;;;;;5075031;28;20111;-91
2022/01/31 17:27:28;;;;;;;12.15;5.35;;;0.70;99.90;;;;;;5076462;28;20531;-92
2022/01/31 17:32:54;;;;;;;;;;;;;;;;;;;;;
2022/01/31 17:35:20;;;;;;;7.47;4.45;;;0.70;99.90;;;;;;5058109;28;20040;-93
2022/01/31 17:37:57;;;;;;;7.63;4.60;;;0.70;99.90;;;;;;5064389;28;20020;-94
2022/01/31 17:40:23;;;;;;;8.50;4.80;;;0.70;99.90;;;;;;5076586;28;20031;-94
2022/01/31 17:43:00;;;;;;;10.27;6.10;;;0.70;99.90;;;;;;5077228;28;20020;-96
2022/01/31 17:45:31;;;;;;;9.98;5.30;;;0.70;99.90;;;;;;5076376;28;20362;-93
2022/01/31 17:48:11;;;;;;;11.65;4.82;;;0.70;99.90;;;;;;5075657;28;20025;-96
2022/01/31 17:50:53;;;;;;;7.15;3.80;;;0.70;99.90;;;;;;5082556;28;20073;-96
2022/01/31 17:53:20;;;;;;;12.68;6.35;;;0.60;99.90;;;;;;5074957;28;20032;-95
2022/01/31 17:55:46;;;;;;;14.13;6.78;;;0.60;99.90;;;;;;5074532;28;20028;-96
2022/01/31 17:58:21;;;;;;;10.00;6.28;;;0.60;99.90;;;;;;5074706;28;20025;-94
2022/01/31 18:00:50;;;;;;;14.48;7.22;;;0.60;99.90;;;;;;5075131;28;20058;-92
2022/01/31 18:03:21;;;;;;;24.88;11.73;;;0.70;99.90;;;;;;5074275;28;20024;-93
2022/01/31 18:05:53;;;;;;;15.50;7.60;;;0.70;99.90;;;;;;5075763;28;20031;-95
2022/01/31 18:08:23;;;;;;;14.85;8.90;;;0.60;99.90;;;;;;5075186;28;20032;-95
2022/01/31 18:10:49;;;;;;;17.88;10.55;;;0.60;99.90;;;;;;5074739;28;20048;-93
2022/01/31 18:13:15;;;;;;;13.18;7.18;;;0.60;99.90;;;;;;5074215;28;20028;-93
2022/01/31 18:15:41;;;;;;;12.10;6.10;;;0.50;99.90;;;;;;5074694;28;20140;-93
2022/01/31 18:18:14;;;;;;;12.05;5.90;;;0.60;99.90;;;;;;5075205;28;20484;-93
2022/01/31 18:20:40;;;;;;;12.43;5.65;;;0.60;99.90;;;;;;5074546;28;20135;-93
2022/01/31 18:23:06;;;;;;;10.70;5.22;;;0.50;99.90;;;;;;5075102;28;20108;-94
2022/01/31 18:25:33;;;;;;;13.27;5.53;;;0.50;99.90;;;;;;5076156;28;20056;-94
2022/01/31 18:28:33;;;;;;;;;;;;;;;;;;;;;
2022/01/31 18:31:07;;;;;;;;;;;0.50;99.90;;;;;;5076493;28;20028;-95
2022/01/31 18:33:37;;;;;;;17.33;8.18;;;0.50;99.90;;;;;;5074054;28;19943;-93
2022/01/31 18:36:13;;;;;;;11.52;6.25;;;0.50;99.90;;;;;;5072012;28;20040;-94
2022/01/31 18:38:41;;;;;;;12.68;5.60;;;0.50;99.90;;;;;;5074189;28;20032;-93
2022/01/31 18:41:07;;;;;;;11.23;5.30;;;0.60;99.90;;;;;;5074263;28;20488;-92
2022/01/31 18:43:34;;;;;;;8.30;5.65;;;0.50;99.90;;;;;;5073451;28;20062;-92
2022/01/31 18:46:00;;;;;;;20.85;9.68;;;0.60;99.90;;;;;;5073812;28;20050;-92
2022/01/31 18:48:27;;;;;;;48.50;19.95;;;0.60;99.90;;;;;;5073764;28;20036;-90
2022/01/31 18:50:55;;;;;;;27.15;10.45;;;0.60;99.90;;;;;;5073466;28;20020;-94
2022/01/31 18:53:22;;;;;;;22.65;9.23;;;0.60;99.90;;;;;;5077158;28;20073;-96
2022/01/31 18:55:51;;;;;;;17.02;7.55;;;0.50;99.90;;;;;;5075309;28;20032;-96
2022/01/31 18:58:17;;;;;;;19.77;8.63;;;0.60;99.90;;;;;;5075596;28;20514;-95
2022/01/31 19:00:43;;;;;;;25.52;11.38;;;0.60;99.90;;;;;;5073599;28;20036;-96
2022/01/31 19:03:09;;;;;;;15.70;8.27;;;0.60;99.90;;;;;;5080327;28;20024;-96
2022/01/31 19:05:36;;;;;;;11.60;5.88;;;0.50;99.90;;;;;;5074788;28;20034;-95
2022/01/31 19:08:07;;;;;;;11.45;6.45;;;0.50;99.90;;;;;;5075265;28;20029;-95
2022/01/31 19:10:37;;;;;;;11.55;5.45;;;0.60;99.90;;;;;;5073720;28;20078;-95
2022/01/31 19:13:47;;;;;;;9.40;5.00;;;0.60;99.90;;;;;;5074858;28;20390;-96
2022/01/31 19:15:57;;;;;;;11.10;4.90;;;0.60;99.90;;;;;;5071109;28;20368;-95
2022/01/31 19:18:26;;;;;;;12.43;5.85;;;0.60;99.90;;;;;;5056410;28;20017;-94
2022/01/31 19:20:55;;;;;;;12.88;5.45;;;0.60;99.90;;;;;;5057548;28;20059;-94
2022/01/31 19:23:21;;;;;;;10.63;5.33;;;0.60;99.90;;;;;;5057594;28;20470;-95
2022/01/31 19:25:48;;;;;;;9.75;5.10;;;0.60;99.90;;;;;;5058737;28;20032;-93
2022/01/31 19:28:15;;;;;;;11.07;5.18;;;0.60;99.90;;;;;;5056248;28;20024;-93
2022/01/31 19:30:42;;;;;;;9.88;5.07;;;0.50;99.90;;;;;;5056527;28;20475;-94
2022/01/31 19:33:08;;;;;;;11.05;5.63;;;0.60;99.90;;;;;;5058513;28;20027;-95
2022/01/31 19:35:37;;;;;;;11.02;6.13;;;0.60;99.90;;;;;;5056308;28;20398;-96
2022/01/31 19:38:05;;;;;;;15.32;6.43;;;0.60;99.90;;;;;;5056216;28;20027;-96
2022/01/31 19:43:24;;;;;;;17.55;9.35;;;0.50;99.90;;;;;;5075616;28;20055;-95
2022/01/31 19:45:59;;;;;;;;;;;0.50;99.90;;;;;;5058557;28;20024;-95
2022/01/31 19:48:29;;;;;;;15.20;7.82;;;0.50;99.90;;;;;;5057632;28;19950;-95
2022/01/31 19:51:05;;;;;;;15.32;7.63;;;0.50;99.90;;;;;;5057108;28;20503;-96
2022/01/31 19:53:31;;;;;;;17.05;8.05;;;0.50;99.90;;;;;;5058758;28;20059;-96
2022/01/31 19:57:00;;;;;;;;;;;;;;;;;;;;;
2022/01/31 20:00:41;;;;;;;15.27;7.60;;;0.50;99.90;;;;;;5064216;28;20028;-96
2022/01/31 20:07:29;;;;;;;14.60;6.68;;;0.50;99.90;;;;;;4898673;29;20035;-96
2022/01/31 20:10:10;;;;;;;10.52;5.10;;;0.60;99.90;;;;;;4877411;29;20051;-96
2022/01/31 21:03:57;;;;;;;18.48;8.90;;;0.40;99.90;;;;;;4930101;29;20067;-96
2022/01/31 21:06:48;;;;;;;41.63;11.68;;;0.40;99.90;;;;;;4905993;29;20059;-96
2022/01/31 21:09:26;;;;;;;14.07;5.22;;;0.40;99.90;;;;;;4906240;29;20043;-96
2022/01/31 21:12:14;;;;;;;16.73;6.40;;;0.40;99.90;;;;;;4907174;29;20032;-95
2022/01/31 21:20:28;;;;;;;23.25;9.45;;;0.40;99.90;;;;;;5006248;28;20042;-96
2022/01/31 21:59:24;;;;;;;26.02;9.95;;;0.30;99.90;;;;;;5003447;28;20104;-96
2022/01/31 22:02:07;;;;;;;15.40;6.75;;;0.30;99.90;;;;;;5000989;28;20114;-96
2022/01/31 22:04:42;;;;;;;12.98;7.13;;;0.30;99.90;;;;;;4986246;28;20038;-96
2022/01/31 22:12:55;;;;;;;13.60;6.88;;;0.30;99.90;;;;;;5114745;23;20100;-96
2022/01/31 22:24:58;;;;;;;11.13;4.93;;;0.30;99.90;;;;;;5240387;23;20082;-96
2022/01/31 22:27:43;;;;;;;14.55;6.63;;;0.30;99.90;;;;;;4967223;28;20051;-96
2022/01/31 22:33:36;;;;;;;11.90;5.63;;;0.30;99.90;;;;;;5156213;23;20082;-96
2022/01/31 22:36:23;;;;;;;12.32;5.40;;;0.30;99.90;;;;;;4972127;28;20413;-96
2022/01/31 22:38:58;;;;;;;15.10;5.55;;;0.30;99.90;;;;;;4917117;28;20145;-96
2022/01/31 22:41:50;;;;;;;9.75;5.15;;;0.30;99.90;;;;;;4965584;28;20042;-96
2022/01/31 23:06:46;;;;;;;13.07;5.97;;;0.20;99.90;;;;;;5160589;23;20105;-96
